Time;durP1;ratioP1;P1;durP2;ratioP2;P2;SDS_P1;SDS_P2;PMS_P1;PMS_P2;Temp;Humidity;BMP_temperature;BMP_pressure;BME280_temperature;BME280_humidity;BME280_pressure;Samples;Min_cycle;Max_cycle;Signal;HPM_P1;HPM_P2
2021/03/30 00:01:20;;;;;;;11.43;3.22;;;10.00;99.90;;;;;;5052674;28;20112;-63
2021/03/30 00:03:46;;;;;;;8.93;3.15;;;10.00;99.90;;;;;;5052411;28;20048;-63
2021/03/30 00:06:12;;;;;;;6.18;2.97;;;10.10;99.90;;;;;;5052090;28;20442;-63
2021/03/30 00:08:38;;;;;;;13.73;3.30;;;10.10;99.90;;;;;;5052436;28;20040;-63
2021/03/30 00:11:06;;;;;;;11.43;3.15;;;10.10;99.90;;;;;;5050829;28;20037;-63
2021/03/30 00:13:31;;;;;;;9.77;2.92;;;10.10;99.90;;;;;;5051198;28;20032;-63
2021/03/30 00:15:58;;;;;;;6.88;3.00;;;10.20;99.90;;;;;;5050788;28;20056;-63
2021/03/30 00:18:24;;;;;;;9.57;3.08;;;10.10;99.90;;;;;;5052347;28;20063;-62
2021/03/30 00:20:50;;;;;;;9.10;3.00;;;10.10;99.90;;;;;;5050818;28;20390;-63
2021/03/30 00:23:15;;;;;;;9.20;3.13;;;10.00;99.90;;;;;;5050069;28;20067;-64
2021/03/30 00:25:41;;;;;;;6.63;2.88;;;10.00;99.90;;;;;;5050950;28;20025;-64
2021/03/30 00:28:07;;;;;;;11.60;3.83;;;9.90;99.90;;;;;;5050747;28;20033;-63
2021/03/30 00:30:33;;;;;;;8.50;3.03;;;9.80;99.90;;;;;;5052177;28;20033;-63
2021/03/30 00:32:59;;;;;;;9.48;3.28;;;9.70;99.90;;;;;;5052058;28;20417;-63
2021/03/30 00:35:25;;;;;;;6.75;3.15;;;9.70;99.90;;;;;;5052117;28;20059;-63
2021/03/30 00:37:51;;;;;;;8.63;3.47;;;9.70;99.90;;;;;;5051651;28;20565;-63
2021/03/30 00:40:18;;;;;;;11.57;3.78;;;9.50;99.90;;;;;;5052226;28;20462;-63
2021/03/30 00:42:44;;;;;;;8.88;3.35;;;9.60;99.90;;;;;;5050812;28;20043;-63
2021/03/30 00:45:12;;;;;;;15.85;6.45;;;9.50;99.90;;;;;;5051668;28;20033;-63
2021/03/30 00:47:46;;;;;;;12.60;3.38;;;9.60;99.90;;;;;;5051819;28;20108;-64
2021/03/30 00:50:21;;;;;;;9.85;3.17;;;9.50;99.90;;;;;;5033982;28;20041;-64
2021/03/30 00:52:48;;;;;;;9.60;3.40;;;9.40;99.90;;;;;;5051774;28;20188;-63
2021/03/30 00:55:15;;;;;;;6.43;3.10;;;9.40;99.90;;;;;;5052051;28;20033;-63
2021/03/30 00:57:42;;;;;;;8.20;3.38;;;9.40;99.90;;;;;;5050684;28;20029;-63
2021/03/30 01:00:11;;;;;;;7.93;3.40;;;9.40;99.90;;;;;;5051532;28;20033;-63
2021/03/30 01:02:39;;;;;;;12.88;3.55;;;9.40;99.90;;;;;;5051928;28;20029;-63
2021/03/30 01:05:07;;;;;;;8.70;3.65;;;9.30;99.90;;;;;;5051306;28;20053;-63
2021/03/30 01:07:35;;;;;;;7.28;3.60;;;9.30;99.90;;;;;;5051606;28;20028;-63
2021/03/30 01:10:26;;;;;;;11.40;3.72;;;9.20;99.90;;;;;;5050468;28;20032;-63
2021/03/30 01:13:26;;;;;;;;;;;9.20;99.90;;;;;;5051013;28;20033;-63
2021/03/30 01:15:58;;;;;;;9.27;2.95;;;9.10;99.90;;;;;;5051665;28;19916;-63
2021/03/30 01:18:49;;;;;;;10.00;3.65;;;9.00;99.90;;;;;;5051779;28;20040;-63
2021/03/30 01:22:07;;;;;;;7.25;3.78;;;9.00;99.90;;;;;;5051402;28;20029;-63
2021/03/30 01:24:38;;;;;;;10.55;3.35;;;8.80;99.90;;;;;;5050652;28;20036;-63
2021/03/30 01:27:37;;;;;;;10.93;3.08;;;8.70;99.90;;;;;;5050148;28;20117;-63
2021/03/30 01:30:05;;;;;;;6.72;3.55;;;8.80;99.90;;;;;;5050550;28;20029;-63
2021/03/30 01:32:42;;;;;;;4.88;3.10;;;8.60;99.90;;;;;;5051538;28;20029;-63
2021/03/30 01:35:13;;;;;;;7.60;3.08;;;8.40;99.90;;;;;;5052633;28;20122;-63
2021/03/30 01:37:46;;;;;;;9.52;3.22;;;8.00;99.90;;;;;;5053924;28;20037;-63
2021/03/30 01:40:19;;;;;;;11.57;3.78;;;8.00;99.90;;;;;;5037183;28;20045;-63
2021/03/30 01:42:47;;;;;;;11.05;4.00;;;8.10;99.90;;;;;;5070721;28;20114;-64
2021/03/30 01:45:16;;;;;;;8.95;2.90;;;8.30;99.90;;;;;;5053756;28;20069;-63
2021/03/30 01:47:43;;;;;;;11.27;3.97;;;8.40;99.90;;;;;;5054753;28;20504;-63
2021/03/30 01:50:12;;;;;;;10.68;3.33;;;8.30;99.90;;;;;;5053751;28;20102;-63
2021/03/30 01:52:39;;;;;;;10.25;3.42;;;8.30;99.90;;;;;;5053424;28;20468;-63
2021/03/30 01:55:14;;;;;;;9.60;3.63;;;8.20;99.90;;;;;;5053686;28;20036;-63
2021/03/30 01:57:45;;;;;;;10.60;3.65;;;8.20;99.90;;;;;;5053795;28;20040;-63
2021/03/30 02:00:12;;;;;;;12.45;4.18;;;8.30;99.90;;;;;;5054871;28;20036;-64
2021/03/30 02:02:42;;;;;;;9.63;3.55;;;8.30;99.90;;;;;;5053531;28;20033;-63
2021/03/30 02:05:10;;;;;;;8.40;4.85;;;8.30;99.90;;;;;;5054285;28;20059;-63
2021/03/30 02:07:37;;;;;;;12.38;4.20;;;8.30;99.90;;;;;;5053555;28;20099;-63
2021/03/30 02:10:10;;;;;;;10.15;3.45;;;8.30;99.90;;;;;;5053037;28;20060;-63
2021/03/30 02:12:41;;;;;;;14.48;3.58;;;8.30;99.90;;;;;;5054628;28;20028;-63
2021/03/30 02:15:14;;;;;;;5.60;3.13;;;8.30;99.90;;;;;;5021585;28;20397;-64
2021/03/30 02:18:09;;;;;;;11.70;3.13;;;8.30;99.90;;;;;;5054262;28;20478;-63
2021/03/30 02:20:54;;;;;;;12.82;3.70;;;8.20;99.90;;;;;;5054470;28;20362;-63
2021/03/30 02:23:26;;;;;;;6.93;3.33;;;8.20;99.90;;;;;;5054156;28;20025;-63
2021/03/30 02:25:57;;;;;;;9.20;4.00;;;8.20;99.90;;;;;;5054062;28;20040;-63
2021/03/30 02:28:35;;;;;;;8.50;3.85;;;8.10;99.90;;;;;;5053036;28;20025;-64
2021/03/30 02:31:04;;;;;;;10.23;4.00;;;8.00;99.90;;;;;;5052813;28;20044;-63
2021/03/30 02:33:32;;;;;;;10.10;4.20;;;7.90;99.90;;;;;;5052994;28;20025;-64
2021/03/30 02:36:00;;;;;;;17.27;4.43;;;7.90;99.90;;;;;;5052869;28;20094;-63
2021/03/30 02:38:29;;;;;;;9.27;4.38;;;8.00;99.90;;;;;;5054136;28;20033;-63
2021/03/30 02:40:55;;;;;;;10.25;3.90;;;7.80;99.90;;;;;;5052942;28;20044;-63
2021/03/30 02:43:22;;;;;;;11.35;4.57;;;7.80;99.90;;;;;;5052444;28;20320;-63
2021/03/30 02:45:51;;;;;;;9.20;4.00;;;7.90;99.90;;;;;;5052138;28;20055;-63
2021/03/30 02:48:18;;;;;;;10.95;3.88;;;7.80;99.90;;;;;;5052554;28;20060;-63
2021/03/30 02:50:46;;;;;;;13.80;3.45;;;7.70;99.90;;;;;;5052715;28;20029;-63
2021/03/30 02:53:13;;;;;;;14.45;3.53;;;7.60;99.90;;;;;;5052241;28;20033;-63
2021/03/30 02:55:41;;;;;;;7.38;3.53;;;7.60;99.90;;;;;;5053624;28;20040;-63
2021/03/30 02:58:09;;;;;;;12.75;4.28;;;7.40;99.90;;;;;;5053558;28;20040;-63
2021/03/30 03:00:39;;;;;;;9.32;3.80;;;7.30;99.90;;;;;;5053564;28;20044;-63
2021/03/30 03:03:11;;;;;;;11.30;3.92;;;7.30;99.90;;;;;;5052459;28;20496;-63
2021/03/30 03:05:38;;;;;;;10.18;3.85;;;7.30;99.90;;;;;;5053163;28;20045;-63
2021/03/30 03:08:08;;;;;;;10.05;4.07;;;7.30;99.90;;;;;;5053074;28;20025;-63
2021/03/30 03:10:37;;;;;;;10.18;4.40;;;7.20;99.90;;;;;;5053505;28;20025;-63
2021/03/30 03:13:08;;;;;;;14.00;4.88;;;7.20;99.90;;;;;;5052139;28;20052;-63
2021/03/30 03:15:35;;;;;;;9.25;3.80;;;7.20;99.90;;;;;;5036429;28;20112;-63
2021/03/30 03:18:03;;;;;;;8.10;3.75;;;7.30;99.90;;;;;;5052079;28;20384;-63
2021/03/30 03:20:29;;;;;;;7.30;3.72;;;7.30;99.90;;;;;;5052226;28;20482;-63
2021/03/30 03:22:56;;;;;;;7.32;3.55;;;7.30;99.90;;;;;;5052963;28;20037;-63
2021/03/30 03:25:22;;;;;;;8.25;3.95;;;7.30;99.90;;;;;;5053146;28;20124;-63
2021/03/30 03:27:48;;;;;;;9.30;3.70;;;7.30;99.90;;;;;;5068371;28;20120;-63
2021/03/30 03:30:14;;;;;;;11.23;4.07;;;7.30;99.90;;;;;;5053097;28;20068;-64
2021/03/30 03:32:42;;;;;;;8.45;4.30;;;7.30;99.90;;;;;;5051645;28;20033;-63
2021/03/30 03:35:12;;;;;;;12.80;4.55;;;7.20;99.90;;;;;;5053013;28;20033;-63
2021/03/30 03:37:43;;;;;;;8.37;4.40;;;7.10;99.90;;;;;;5053038;28;20029;-63
2021/03/30 03:40:10;;;;;;;10.18;4.25;;;7.00;99.90;;;;;;5052913;28;20349;-63
2021/03/30 03:42:37;;;;;;;9.73;4.18;;;7.00;99.90;;;;;;5051665;28;20037;-64
2021/03/30 03:45:06;;;;;;;5.93;3.80;;;7.10;99.90;;;;;;5052688;28;20378;-63
2021/03/30 03:47:32;;;;;;;11.52;3.90;;;7.00;99.90;;;;;;5052785;28;20163;-63
2021/03/30 03:49:58;;;;;;;14.95;4.72;;;6.90;99.90;;;;;;5052775;28;20119;-63
2021/03/30 03:52:24;;;;;;;9.98;3.92;;;6.80;99.90;;;;;;5051283;28;20025;-63
2021/03/30 03:54:54;;;;;;;7.72;3.75;;;6.90;99.90;;;;;;5057032;28;20029;-62
2021/03/30 03:57:26;;;;;;;10.55;4.57;;;6.90;99.90;;;;;;5069116;28;20572;-65
2021/03/30 03:59:52;;;;;;;11.43;4.68;;;6.80;99.90;;;;;;5064333;28;20082;-65
2021/03/30 04:02:31;;;;;;;8.32;4.47;;;6.80;99.90;;;;;;5061707;28;20052;-66
2021/03/30 04:05:16;;;;;;;9.10;4.20;;;6.90;99.90;;;;;;5061345;28;20123;-64
2021/03/30 04:07:57;;;;;;;11.80;4.53;;;7.00;99.90;;;;;;5067465;28;20025;-65
2021/03/30 04:10:26;;;;;;;10.13;4.15;;;6.80;99.90;;;;;;5054706;28;20060;-65
2021/03/30 04:12:53;;;;;;;11.13;5.13;;;6.70;99.90;;;;;;5051356;28;20044;-65
2021/03/30 04:15:24;;;;;;;14.23;4.28;;;6.60;99.90;;;;;;5054332;28;20067;-65
2021/03/30 04:17:51;;;;;;;;;;;6.60;99.90;;;;;;5066189;28;20028;-63
2021/03/30 04:20:19;;;;;;;13.85;4.13;;;6.60;99.90;;;;;;5066183;28;20357;-64
2021/03/30 04:22:51;;;;;;;8.60;4.30;;;6.50;99.90;;;;;;5062273;28;20029;-63
2021/03/30 04:25:17;;;;;;;11.88;3.92;;;6.50;99.90;;;;;;5080105;28;20657;-64
2021/03/30 04:27:43;;;;;;;9.80;4.43;;;6.40;99.90;;;;;;5092461;28;20047;-64
2021/03/30 04:30:10;;;;;;;7.95;3.72;;;6.40;99.90;;;;;;5091990;28;20040;-63
2021/03/30 04:32:36;;;;;;;15.18;4.13;;;6.30;99.90;;;;;;5092399;28;20027;-62
2021/03/30 04:35:02;;;;;;;11.98;4.95;;;6.40;99.90;;;;;;5060016;28;20124;-64
2021/03/30 04:37:28;;;;;;;10.45;3.95;;;6.40;99.90;;;;;;5092224;28;20043;-64
2021/03/30 04:39:54;;;;;;;11.70;3.85;;;6.40;99.90;;;;;;5092034;28;20024;-63
2021/03/30 04:42:20;;;;;;;13.23;4.00;;;6.30;99.90;;;;;;5092174;28;20039;-64
2021/03/30 04:44:45;;;;;;;12.85;3.95;;;6.40;99.90;;;;;;5092232;28;20465;-64
2021/03/30 04:47:11;;;;;;;11.73;3.92;;;6.10;99.90;;;;;;5091783;28;20358;-63
2021/03/30 04:49:37;;;;;;;10.05;4.38;;;6.20;99.90;;;;;;5090572;28;20055;-64
2021/03/30 04:52:03;;;;;;;7.85;3.60;;;6.20;99.90;;;;;;5092113;28;20035;-65
2021/03/30 04:54:29;;;;;;;10.07;3.78;;;6.20;99.90;;;;;;5085868;28;20029;-64
2021/03/30 04:56:55;;;;;;;10.40;3.92;;;6.20;99.90;;;;;;5051749;28;20091;-64
2021/03/30 04:59:22;;;;;;;12.50;4.38;;;6.20;99.90;;;;;;5051362;28;20504;-64
2021/03/30 05:01:48;;;;;;;11.52;4.40;;;6.30;99.90;;;;;;5051843;28;20394;-64
2021/03/30 05:04:13;;;;;;;12.48;4.30;;;6.50;99.90;;;;;;5051054;28;20059;-64
2021/03/30 05:06:39;;;;;;;10.73;4.43;;;6.50;99.90;;;;;;5051890;28;20037;-64
2021/03/30 05:09:06;;;;;;;10.80;4.30;;;6.50;99.90;;;;;;5052609;28;20028;-64
2021/03/30 05:11:31;;;;;;;11.50;5.25;;;6.50;99.90;;;;;;5055395;28;20041;-64
2021/03/30 05:13:57;;;;;;;13.23;4.53;;;6.60;99.90;;;;;;5055717;28;20056;-64
2021/03/30 05:16:23;;;;;;;13.23;4.63;;;6.60;99.90;;;;;;5055572;28;20025;-64
2021/03/30 05:18:49;;;;;;;9.10;4.45;;;6.60;99.90;;;;;;5055631;28;20033;-65
2021/03/30 05:21:17;;;;;;;13.27;3.97;;;6.60;99.90;;;;;;5055374;28;20120;-65
2021/03/30 05:23:43;;;;;;;14.15;4.53;;;6.40;99.90;;;;;;5057450;28;20021;-64
2021/03/30 05:26:09;;;;;;;19.35;5.15;;;6.50;99.90;;;;;;5074358;28;20031;-65
2021/03/30 05:28:34;;;;;;;14.93;4.38;;;6.50;99.90;;;;;;5057879;28;20036;-65
2021/03/30 05:31:00;;;;;;;13.57;4.53;;;6.40;99.90;;;;;;5055546;28;20047;-67
2021/03/30 05:33:26;;;;;;;19.23;4.50;;;6.30;99.90;;;;;;5054098;28;20126;-67
2021/03/30 05:35:52;;;;;;;8.23;3.92;;;6.40;99.90;;;;;;5055362;28;20540;-67
2021/03/30 05:38:18;;;;;;;11.30;4.30;;;6.30;99.90;;;;;;5054746;28;20036;-67
2021/03/30 05:40:44;;;;;;;10.32;4.10;;;6.20;99.90;;;;;;5054668;28;20130;-66
2021/03/30 05:43:12;;;;;;;14.85;4.50;;;6.30;99.90;;;;;;5053566;28;20036;-66
2021/03/30 05:45:38;;;;;;;11.88;4.38;;;6.20;99.90;;;;;;5054693;28;20485;-66
2021/03/30 05:48:10;;;;;;;11.30;4.32;;;6.20;99.90;;;;;;5054741;28;20037;-66
2021/03/30 05:50:36;;;;;;;9.35;4.20;;;6.30;99.90;;;;;;5055082;28;20033;-66
2021/03/30 05:53:08;;;;;;;10.07;4.78;;;6.50;99.90;;;;;;5055019;28;20057;-66
2021/03/30 05:55:39;;;;;;;;;;;6.50;99.90;;;;;;5079364;28;20114;-66
2021/03/30 05:58:07;;;;;;;17.35;7.72;;;6.50;99.90;;;;;;5100611;28;20411;-66
2021/03/30 06:00:38;;;;;;;33.42;12.93;;;6.60;99.90;;;;;;5094968;28;20032;-66
2021/03/30 06:03:08;;;;;;;18.45;6.90;;;6.70;99.90;;;;;;5093434;28;20043;-66
2021/03/30 06:05:35;;;;;;;13.80;5.78;;;6.80;99.90;;;;;;5094816;28;20506;-66
2021/03/30 06:08:03;;;;;;;24.10;6.05;;;7.00;99.90;;;;;;5077016;28;20055;-66
2021/03/30 06:10:31;;;;;;;23.85;7.25;;;7.10;99.90;;;;;;5090261;28;20074;-65
2021/03/30 06:12:59;;;;;;;9.32;4.88;;;7.20;99.90;;;;;;5093681;28;20035;-65
2021/03/30 06:15:33;;;;;;;25.10;5.82;;;7.20;99.90;;;;;;5094684;28;20033;-66
2021/03/30 06:18:01;;;;;;;16.60;5.80;;;7.30;99.90;;;;;;5094841;28;20051;-64
2021/03/30 06:20:30;;;;;;;20.48;6.32;;;7.40;99.90;;;;;;5093664;28;20047;-64
2021/03/30 06:23:02;;;;;;;17.52;5.55;;;7.50;99.90;;;;;;5094378;28;20042;-65
2021/03/30 06:25:37;;;;;;;34.33;10.10;;;7.60;99.90;;;;;;5082816;28;20557;-65
2021/03/30 06:28:19;;;;;;;21.42;6.78;;;7.70;99.90;;;;;;5074304;28;20428;-65
2021/03/30 06:31:10;;;;;;;14.45;5.75;;;7.70;99.90;;;;;;5072762;28;20052;-66
2021/03/30 06:33:48;;;;;;;12.85;5.65;;;7.80;99.90;;;;;;5074309;28;20552;-66
2021/03/30 06:36:22;;;;;;;32.25;5.40;;;7.80;99.90;;;;;;5074154;28;20040;-65
2021/03/30 06:39:05;;;;;;;15.20;5.80;;;7.90;99.90;;;;;;5072957;28;20116;-65
2021/03/30 06:44:28;;;;;;;21.95;5.70;;;8.10;99.90;;;;;;5074169;28;20043;-65
2021/03/30 06:47:17;;;;;;;17.38;6.15;;;8.20;99.90;;;;;;5073681;28;20042;-65
2021/03/30 06:50:02;;;;;;;13.57;5.05;;;8.30;99.90;;;;;;5072842;28;20036;-65
2021/03/30 06:52:35;;;;;;;11.40;5.40;;;8.40;99.90;;;;;;5073532;28;20033;-65
2021/03/30 06:55:03;;;;;;;12.00;4.50;;;8.50;99.90;;;;;;5081201;28;20071;-65
2021/03/30 06:57:47;;;;;;;12.82;5.35;;;8.70;99.90;;;;;;5094030;28;20028;-64
2021/03/30 07:00:34;;;;;;;9.63;4.30;;;8.80;99.90;;;;;;5093929;28;20484;-66
2021/03/30 07:03:07;;;;;;;14.10;5.05;;;8.90;99.90;;;;;;5092780;28;20043;-66
2021/03/30 07:05:42;;;;;;;9.82;5.32;;;8.90;99.90;;;;;;5092260;28;20055;-66
2021/03/30 07:08:16;;;;;;;14.38;4.60;;;9.00;99.90;;;;;;5092423;28;20107;-66
2021/03/30 07:10:50;;;;;;;9.45;4.53;;;9.10;99.90;;;;;;5092504;28;20052;-65
2021/03/30 07:13:20;;;;;;;12.23;4.65;;;9.20;99.90;;;;;;5093417;28;20032;-66
2021/03/30 07:15:46;;;;;;;10.57;5.07;;;9.20;99.90;;;;;;5093680;28;20039;-66
2021/03/30 07:18:23;;;;;;;12.35;4.80;;;9.30;99.90;;;;;;5093658;28;20028;-65
2021/03/30 07:21:33;;;;;;;13.52;4.80;;;9.40;99.90;;;;;;5093621;28;20035;-65
2021/03/30 07:24:07;;;;;;;14.48;4.82;;;9.50;99.90;;;;;;5070624;28;20037;-66
2021/03/30 07:27:02;;;;;;;11.55;4.63;;;9.60;99.90;;;;;;5030431;28;20076;-66
2021/03/30 07:29:36;;;;;;;10.05;4.90;;;9.80;99.90;;;;;;5015532;28;20103;-66
2021/03/30 07:32:20;;;;;;;11.68;5.18;;;9.90;99.90;;;;;;5014930;28;20037;-66
2021/03/30 07:35:05;;;;;;;14.23;5.65;;;10.00;99.90;;;;;;5030361;28;20052;-66
2021/03/30 07:37:49;;;;;;;12.43;5.38;;;10.10;99.90;;;;;;5030291;28;20026;-65
2021/03/30 07:40:18;;;;;;;11.52;5.50;;;10.20;99.90;;;;;;5014841;28;20513;-65
2021/03/30 07:42:46;;;;;;;13.73;5.70;;;10.30;99.90;;;;;;5030255;28;20037;-65
2021/03/30 07:45:14;;;;;;;16.23;5.40;;;10.40;99.90;;;;;;5013944;28;20499;-66
2021/03/30 07:47:41;;;;;;;13.00;5.60;;;10.50;99.90;;;;;;4997558;28;20072;-65
2021/03/30 07:50:10;;;;;;;15.10;5.72;;;10.50;99.90;;;;;;5030326;28;20041;-65
2021/03/30 07:52:53;;;;;;;14.20;5.35;;;10.70;99.90;;;;;;5030166;28;20083;-65
2021/03/30 07:55:27;;;;;;;14.32;5.00;;;10.90;99.90;;;;;;5067704;28;20044;-66
2021/03/30 07:58:05;;;;;;;17.05;5.47;;;11.00;99.90;;;;;;5092846;28;20039;-66
2021/03/30 08:00:31;;;;;;;9.60;4.63;;;11.00;99.90;;;;;;5092844;28;20036;-67
2021/03/30 08:03:20;;;;;;;10.38;5.05;;;11.10;99.90;;;;;;5092660;28;20036;-66
2021/03/30 08:06:09;;;;;;;10.45;4.78;;;11.30;99.90;;;;;;5092191;28;20438;-66
2021/03/30 08:08:47;;;;;;;14.15;5.53;;;11.40;99.90;;;;;;5092658;28;20088;-67
2021/03/30 08:11:15;;;;;;;13.02;5.28;;;11.60;99.80;;;;;;5092582;28;20081;-66
2021/03/30 08:13:54;;;;;;;19.35;5.78;;;11.70;99.70;;;;;;5091342;28;20123;-65
2021/03/30 08:16:21;;;;;;;13.35;5.15;;;11.80;99.40;;;;;;5087996;28;20028;-65
2021/03/30 08:18:48;;;;;;;15.98;7.82;;;12.00;98.80;;;;;;5092577;28;20028;-66
2021/03/30 08:21:19;;;;;;;11.13;5.30;;;12.20;98.60;;;;;;5092353;28;20107;-66
2021/03/30 08:24:04;;;;;;;8.43;4.70;;;12.30;98.10;;;;;;5092492;28;20024;-67
2021/03/30 08:26:33;;;;;;;11.02;4.95;;;12.50;97.60;;;;;;5070650;28;20493;-66
2021/03/30 08:29:36;;;;;;;9.30;4.45;;;12.60;97.20;;;;;;5071974;28;20445;-66
2021/03/30 08:32:03;;;;;;;11.70;5.00;;;12.80;96.90;;;;;;5072141;28;20032;-67
2021/03/30 08:34:41;;;;;;;11.13;4.78;;;12.90;96.50;;;;;;5072039;28;20043;-65
2021/03/30 08:37:15;;;;;;;17.17;6.38;;;13.10;95.90;;;;;;5072294;28;20032;-66
2021/03/30 08:39:42;;;;;;;14.68;5.38;;;13.10;95.60;;;;;;5071833;28;20028;-66
2021/03/30 08:42:20;;;;;;;12.90;5.32;;;13.20;96.00;;;;;;5087340;28;20025;-66
2021/03/30 08:44:59;;;;;;;14.98;5.65;;;13.40;95.60;;;;;;5073589;28;20485;-65
2021/03/30 08:47:40;;;;;;;12.93;5.95;;;13.60;95.20;;;;;;5076189;28;20040;-65
2021/03/30 08:50:27;;;;;;;11.18;5.35;;;13.80;94.70;;;;;;5076377;28;20033;-65
2021/03/30 08:52:57;;;;;;;16.17;6.63;;;13.90;94.70;;;;;;5076256;28;20166;-66
2021/03/30 08:55:37;;;;;;;12.15;6.15;;;14.00;94.60;;;;;;5086670;28;20388;-66
2021/03/30 08:58:04;;;;;;;12.07;6.40;;;14.10;93.90;;;;;;5096089;28;20028;-66
2021/03/30 09:00:30;;;;;;;13.18;5.65;;;14.20;93.70;;;;;;5095017;28;20028;-66
2021/03/30 09:03:05;;;;;;;17.23;7.20;;;14.30;93.70;;;;;;5096307;28;20499;-66
2021/03/30 09:05:41;;;;;;;10.57;5.72;;;14.50;93.00;;;;;;5095658;28;20162;-66
2021/03/30 09:08:10;;;;;;;10.43;5.30;;;14.70;92.00;;;;;;5096268;28;20046;-65
2021/03/30 09:10:37;;;;;;;16.80;6.18;;;14.70;91.00;;;;;;5095595;28;20024;-66
2021/03/30 09:13:16;;;;;;;15.55;6.13;;;14.70;91.50;;;;;;5095952;28;20111;-65
2021/03/30 09:15:44;;;;;;;11.77;5.28;;;14.90;92.40;;;;;;5094773;28;20042;-66
2021/03/30 09:18:11;;;;;;;13.52;5.47;;;15.00;91.40;;;;;;5094817;28;20032;-66
2021/03/30 09:20:37;;;;;;;16.35;7.00;;;15.20;91.80;;;;;;5095781;28;20086;-65
2021/03/30 09:23:23;;;;;;;16.45;6.07;;;15.40;92.10;;;;;;5095924;28;20090;-66
2021/03/30 09:25:52;;;;;;;17.15;5.55;;;15.50;90.50;;;;;;5079896;28;20119;-65
2021/03/30 09:28:24;;;;;;;15.90;6.60;;;15.70;88.60;;;;;;5090477;28;20592;-66
2021/03/30 09:30:50;;;;;;;15.27;6.07;;;15.90;88.80;;;;;;5075470;28;20068;-66
2021/03/30 09:33:16;;;;;;;11.38;5.38;;;16.00;86.80;;;;;;5090260;28;20401;-66
2021/03/30 09:35:43;;;;;;;11.32;4.75;;;16.00;86.60;;;;;;5073453;28;20040;-66
2021/03/30 09:38:09;;;;;;;10.25;4.93;;;16.10;87.00;;;;;;5074881;28;20055;-66
2021/03/30 09:40:42;;;;;;;11.40;4.60;;;16.30;83.40;;;;;;5074666;28;20068;-65
2021/03/30 09:43:14;;;;;;;10.68;5.78;;;16.30;81.20;;;;;;5073510;28;20054;-65
2021/03/30 09:45:42;;;;;;;14.43;6.30;;;16.60;80.90;;;;;;5074734;28;20529;-65
2021/03/30 09:48:17;;;;;;;14.32;5.70;;;16.80;83.30;;;;;;5090773;28;20090;-66
2021/03/30 09:50:46;;;;;;;10.88;5.82;;;17.10;80.60;;;;;;5074633;28;20876;-66
2021/03/30 09:53:13;;;;;;;11.95;5.60;;;17.10;79.20;;;;;;5090402;28;20492;-65
2021/03/30 09:55:43;;;;;;;12.88;5.50;;;17.30;78.10;;;;;;5087643;28;20107;-67
2021/03/30 09:58:12;;;;;;;11.23;5.20;;;17.50;79.00;;;;;;5095202;28;20030;-66
2021/03/30 10:00:41;;;;;;;11.75;5.13;;;17.70;76.20;;;;;;5095065;28;20031;-66
2021/03/30 10:03:09;;;;;;;11.52;4.80;;;17.90;75.20;;;;;;5095213;28;20055;-65
2021/03/30 10:05:42;;;;;;;13.32;4.85;;;18.00;72.80;;;;;;5093300;28;20083;-65
2021/03/30 10:08:29;;;;;;;11.07;5.93;;;18.20;72.60;;;;;;5095157;28;20036;-66
2021/03/30 10:10:58;;;;;;;14.43;4.85;;;18.20;72.40;;;;;;5094321;28;20066;-64
2021/03/30 10:13:36;;;;;;;11.00;5.00;;;18.40;68.00;;;;;;5093758;28;20390;-68
2021/03/30 10:16:06;;;;;;;14.27;6.63;;;18.50;69.30;;;;;;5094914;28;20028;-64
2021/03/30 10:18:34;;;;;;;12.40;5.78;;;18.40;66.20;;;;;;5083978;28;20389;-65
2021/03/30 10:21:18;;;;;;;10.57;5.53;;;18.70;65.80;;;;;;5074431;28;20042;-65
2021/03/30 10:23:49;;;;;;;9.00;5.20;;;18.70;67.20;;;;;;5059914;28;20031;-65
2021/03/30 10:26:25;;;;;;;15.23;5.80;;;19.00;63.20;;;;;;5091905;28;20485;-65
2021/03/30 10:29:04;;;;;;;12.70;6.00;;;19.20;62.70;;;;;;5094579;28;20039;-65
2021/03/30 10:31:56;;;;;;;12.93;5.65;;;19.30;63.80;;;;;;5094444;28;20486;-65
2021/03/30 10:34:28;;;;;;;11.48;5.40;;;19.50;60.50;;;;;;5094454;28;20050;-65
2021/03/30 10:36:58;;;;;;;10.88;5.15;;;19.80;59.20;;;;;;5092817;28;20081;-65
2021/03/30 10:40:01;;;;;;;12.13;5.63;;;20.00;57.10;;;;;;5094343;28;20085;-65
2021/03/30 10:42:29;;;;;;;14.40;6.13;;;20.20;58.50;;;;;;5092502;28;20032;-65
2021/03/30 10:45:05;;;;;;;13.65;5.25;;;20.20;56.90;;;;;;5094314;28;20123;-65
2021/03/30 10:47:40;;;;;;;13.30;6.18;;;20.30;58.40;;;;;;5092851;28;20031;-65
2021/03/30 10:50:17;;;;;;;16.10;6.50;;;20.40;57.90;;;;;;5093124;28;20027;-65
2021/03/30 10:52:43;;;;;;;15.90;5.93;;;20.90;56.60;;;;;;5094048;28;20043;-65
2021/03/30 10:55:18;;;;;;;17.40;6.03;;;21.00;58.20;;;;;;5063729;28;20056;-65
2021/03/30 10:57:48;;;;;;;12.27;5.90;;;20.50;54.80;;;;;;5053508;28;20116;-66
2021/03/30 11:00:17;;;;;;;16.58;6.55;;;20.80;56.50;;;;;;5053886;28;20056;-66
2021/03/30 11:02:43;;;;;;;11.68;7.13;;;21.50;55.00;;;;;;5053528;28;20429;-65
2021/03/30 11:05:11;;;;;;;18.52;6.47;;;21.80;54.20;;;;;;5050920;28;20379;-65
2021/03/30 11:07:38;;;;;;;13.35;6.90;;;22.10;52.90;;;;;;5068262;28;20032;-66
2021/03/30 11:10:08;;;;;;;17.63;7.50;;;21.70;52.80;;;;;;5053485;28;20083;-66
2021/03/30 11:12:35;;;;;;;17.60;6.63;;;21.90;51.40;;;;;;5053073;28;20044;-66
2021/03/30 11:15:06;;;;;;;33.22;18.30;;;22.40;52.70;;;;;;5053406;28;20068;-66
2021/03/30 11:17:32;;;;;;;20.92;11.95;;;22.80;53.80;;;;;;5053059;28;20033;-65
2021/03/30 11:19:58;;;;;;;22.13;7.80;;;23.10;51.60;;;;;;5053407;28;20386;-65
2021/03/30 11:22:24;;;;;;;15.07;7.00;;;22.80;50.90;;;;;;5051834;28;20393;-65
2021/03/30 11:24:54;;;;;;;17.35;7.00;;;22.60;49.60;;;;;;5065134;28;20069;-66
2021/03/30 11:27:20;;;;;;;10.80;7.05;;;22.60;49.80;;;;;;5093174;28;20028;-66
2021/03/30 11:29:53;;;;;;;14.68;7.07;;;22.50;50.10;;;;;;5093437;28;20076;-65
2021/03/30 11:32:32;;;;;;;10.65;6.00;;;22.90;50.40;;;;;;5091943;28;20115;-65
2021/03/30 11:35:02;;;;;;;11.90;5.20;;;23.50;48.70;;;;;;5091891;28;20451;-66
2021/03/30 11:39:55;;;;;;;11.85;5.38;;;23.60;47.50;;;;;;5093207;28;20043;-65
2021/03/30 11:42:21;;;;;;;10.32;5.82;;;24.20;45.90;;;;;;5093137;28;20027;-66
2021/03/30 11:44:47;;;;;;;11.13;5.75;;;24.60;44.20;;;;;;5092887;28;20027;-66
2021/03/30 11:47:13;;;;;;;11.38;5.15;;;24.70;44.00;;;;;;5091916;28;20040;-67
2021/03/30 11:49:39;;;;;;;53.47;31.15;;;24.50;43.90;;;;;;5092884;28;20042;-65
2021/03/30 11:52:06;;;;;;;20.23;10.15;;;24.10;45.30;;;;;;5092925;28;20131;-66
2021/03/30 11:54:33;;;;;;;11.00;4.20;;;24.30;45.10;;;;;;5087890;28;20107;-65
2021/03/30 11:56:59;;;;;;;12.75;6.95;;;23.90;44.70;;;;;;5072556;28;20131;-66
2021/03/30 11:59:26;;;;;;;13.20;5.35;;;24.40;43.70;;;;;;5070938;28;20024;-66
2021/03/30 12:01:53;;;;;;;7.25;3.95;;;24.00;44.50;;;;;;5072045;28;20572;-65
2021/03/30 12:04:18;;;;;;;8.95;4.53;;;24.30;44.60;;;;;;5072235;28;20027;-64
2021/03/30 12:06:44;;;;;;;12.43;4.70;;;24.00;41.70;;;;;;5072479;28;20045;-65
2021/03/30 12:09:10;;;;;;;11.73;5.20;;;24.40;43.40;;;;;;5072508;28;20480;-66
2021/03/30 12:11:36;;;;;;;8.25;4.78;;;23.60;42.10;;;;;;5072312;28;20035;-66
2021/03/30 12:14:03;;;;;;;11.95;4.25;;;23.80;43.00;;;;;;5072130;28;20072;-64
2021/03/30 12:16:29;;;;;;;9.65;4.63;;;24.80;43.50;;;;;;5072482;28;20036;-67
2021/03/30 12:18:56;;;;;;;9.85;4.50;;;25.70;43.30;;;;;;5086870;28;20032;-65
2021/03/30 12:21:23;;;;;;;8.90;4.00;;;26.50;41.00;;;;;;5072336;28;20036;-65
2021/03/30 12:23:49;;;;;;;5.95;3.85;;;26.60;40.00;;;;;;5072214;28;20465;-66
2021/03/30 12:26:15;;;;;;;11.00;3.28;;;27.00;38.40;;;;;;5089880;28;20507;-65
2021/03/30 12:28:41;;;;;;;7.22;2.78;;;26.60;38.70;;;;;;5092094;28;20043;-65
2021/03/30 12:31:07;;;;;;;6.38;3.63;;;28.30;36.90;;;;;;5092431;28;20036;-64
2021/03/30 12:33:33;;;;;;;8.75;3.90;;;27.60;37.40;;;;;;5089166;28;20461;-66
2021/03/30 12:35:59;;;;;;;5.65;3.38;;;27.40;36.60;;;;;;5092077;28;20068;-64
2021/03/30 12:38:25;;;;;;;15.98;6.05;;;26.80;36.20;;;;;;5092013;28;20032;-66
2021/03/30 12:40:51;;;;;;;9.75;3.22;;;26.80;37.70;;;;;;5092092;28;20544;-65
2021/03/30 12:43:17;;;;;;;6.78;3.15;;;29.60;35.70;;;;;;5092308;28;20028;-65
2021/03/30 12:45:43;;;;;;;7.70;3.70;;;27.70;36.30;;;;;;5092058;28;20036;-66
2021/03/30 12:48:15;;;;;;;9.10;3.90;;;26.20;36.50;;;;;;5092345;28;20035;-65
2021/03/30 12:50:42;;;;;;;10.20;3.42;;;27.30;38.30;;;;;;5090668;28;20430;-65
2021/03/30 12:53:08;;;;;;;6.47;3.20;;;28.80;37.10;;;;;;5092289;28;20027;-66
2021/03/30 12:55:34;;;;;;;7.45;3.88;;;29.30;36.20;;;;;;5079776;28;20126;-66
2021/03/30 12:58:00;;;;;;;6.45;3.50;;;29.20;35.90;;;;;;5070653;28;20539;-65
2021/03/30 13:00:26;;;;;;;9.43;3.88;;;30.50;33.50;;;;;;5072012;28;20031;-66
2021/03/30 13:02:52;;;;;;;6.03;3.58;;;28.80;36.00;;;;;;5071626;28;20090;-65
2021/03/30 13:05:20;;;;;;;6.07;3.58;;;29.60;35.80;;;;;;5071530;28;20052;-66
2021/03/30 13:07:46;;;;;;;6.95;3.53;;;29.30;36.30;;;;;;5071785;28;20024;-66
2021/03/30 13:10:12;;;;;;;5.88;3.88;;;27.50;36.30;;;;;;5070385;28;20072;-65